Time;durP1;ratioP1;P1;durP2;ratioP2;P2;SDS_P1;SDS_P2;PMS_P1;PMS_P2;Temp;Humidity;BMP_temperature;BMP_pressure;BME280_temperature;BME280_humidity;BME280_pressure;Samples;Min_cycle;Max_cycle;Signal;HPM_P1;HPM_P2
2022/01/05 00:01:28;;;;;;;10.23;4.27;;;;;;;;;;5036241;28;20285;-67
2022/01/05 00:03:54;;;;;;;15.97;4.33;;;;;;;;;;5036144;28;20722;-67
2022/01/05 00:06:20;;;;;;;7.40;4.27;;;;;;;;;;5036190;28;20258;-67
2022/01/05 00:08:46;;;;;;;11.17;4.03;;;;;;;;;;5034721;28;20180;-68
2022/01/05 00:11:12;;;;;;;12.33;4.10;;;;;;;;;;5035960;28;20185;-67
2022/01/05 00:13:39;;;;;;;8.60;4.27;;;;;;;;;;5034404;28;20207;-67
2022/01/05 00:16:05;;;;;;;9.73;4.00;;;;;;;;;;5035700;28;20187;-67
2022/01/05 00:18:31;;;;;;;8.50;3.50;;;;;;;;;;5035864;28;20175;-67
2022/01/05 00:20:59;;;;;;;9.40;3.63;;;;;;;;;;5035781;28;20202;-68
2022/01/05 00:23:25;;;;;;;10.50;3.57;;;;;;;;;;5034512;28;20233;-66
2022/01/05 00:25:51;;;;;;;15.40;5.23;;;;;;;;;;5035807;28;20175;-67
2022/01/05 00:28:17;;;;;;;9.87;3.70;;;;;;;;;;5035239;28;20186;-67
2022/01/05 00:30:43;;;;;;;10.67;3.13;;;;;;;;;;5035564;28;20180;-67
2022/01/05 00:33:09;;;;;;;14.13;3.00;;;;;;;;;;5035674;28;20186;-67
2022/01/05 00:35:35;;;;;;;12.27;2.70;;;;;;;;;;5034181;28;20256;-67
2022/01/05 00:38:01;;;;;;;11.33;2.90;;;;;;;;;;5034204;28;20206;-67
2022/01/05 00:40:27;;;;;;;4.30;2.50;;;;;;;;;;5034728;28;20214;-67
2022/01/05 00:42:53;;;;;;;12.63;2.87;;;;;;;;;;5035850;28;20514;-66
2022/01/05 00:45:19;;;;;;;8.47;2.90;;;;;;;;;;5036542;28;20205;-66
2022/01/05 00:47:45;;;;;;;10.77;2.90;;;;;;;;;;5037082;28;20190;-67
2022/01/05 00:50:11;;;;;;;8.10;2.53;;;;;;;;;;5037825;28;20199;-66
2022/01/05 00:52:37;;;;;;;9.67;2.23;;;;;;;;;;5037581;28;20565;-67
2022/01/05 00:55:03;;;;;;;7.83;2.20;;;;;;;;;;5035481;28;20564;-67
2022/01/05 00:57:29;;;;;;;3.67;2.27;;;;;;;;;;5034082;28;20558;-66
2022/01/05 00:59:55;;;;;;;6.90;2.20;;;;;;;;;;5035492;28;20199;-66
2022/01/05 01:02:21;;;;;;;11.87;2.60;;;;;;;;;;5033769;28;20242;-66
2022/01/05 01:04:47;;;;;;;9.90;3.00;;;;;;;;;;5034956;28;20222;-66
2022/01/05 01:07:13;;;;;;;13.67;3.27;;;;;;;;;;5035248;28;20261;-67
2022/01/05 01:09:39;;;;;;;10.57;3.00;;;;;;;;;;5034818;28;20241;-66
2022/01/05 01:12:05;;;;;;;9.03;2.50;;;;;;;;;;5033463;28;20221;-66
2022/01/05 01:14:31;;;;;;;5.37;2.57;;;;;;;;;;5033256;28;20203;-66
2022/01/05 01:16:57;;;;;;;9.00;2.77;;;;;;;;;;5035014;28;20190;-67
2022/01/05 01:19:23;;;;;;;9.53;2.53;;;;;;;;;;5034764;28;20230;-66
2022/01/05 01:21:49;;;;;;;8.27;2.60;;;;;;;;;;5035102;28;20241;-67
2022/01/05 01:24:15;;;;;;;9.27;2.30;;;;;;;;;;5033220;28;20226;-66
2022/01/05 01:26:41;;;;;;;8.27;2.80;;;;;;;;;;5034343;28;20640;-66
2022/01/05 01:29:07;;;;;;;9.17;2.93;;;;;;;;;;5034346;28;20182;-67
2022/01/05 01:31:33;;;;;;;9.80;3.20;;;;;;;;;;5034405;28;20414;-67
2022/01/05 01:33:59;;;;;;;9.07;3.20;;;;;;;;;;5035254;28;20203;-68
2022/01/05 01:36:25;;;;;;;7.73;3.37;;;;;;;;;;5036242;28;20229;-66
2022/01/05 01:38:51;;;;;;;11.40;4.03;;;;;;;;;;5034358;28;20191;-66
2022/01/05 01:41:17;;;;;;;13.67;3.77;;;;;;;;;;5033901;28;20613;-66
2022/01/05 01:43:43;;;;;;;10.23;3.50;;;;;;;;;;5035603;28;20195;-66
2022/01/05 01:46:09;;;;;;;9.83;3.90;;;;;;;;;;5035389;28;20551;-66
2022/01/05 01:48:35;;;;;;;11.70;3.60;;;;;;;;;;5034682;28;20199;-66
2022/01/05 01:51:01;;;;;;;10.87;3.90;;;;;;;;;;5032952;28;20437;-66
2022/01/05 01:53:27;;;;;;;11.30;4.00;;;;;;;;;;5032903;28;20187;-66
2022/01/05 01:55:54;;;;;;;9.53;3.90;;;;;;;;;;5032422;28;20189;-66
2022/01/05 01:58:22;;;;;;;6.70;3.90;;;;;;;;;;5032884;28;20203;-68
2022/01/05 02:00:48;;;;;;;10.77;4.40;;;;;;;;;;5034059;28;20252;-66
2022/01/05 02:03:15;;;;;;;11.07;4.43;;;;;;;;;;5033915;28;20508;-67
2022/01/05 02:05:41;;;;;;;12.20;4.03;;;;;;;;;;5034374;28;20480;-66
2022/01/05 02:08:07;;;;;;;10.27;4.73;;;;;;;;;;5034710;28;20410;-66
2022/01/05 02:10:33;;;;;;;9.50;4.60;;;;;;;;;;5034096;28;20418;-67
2022/01/05 02:12:59;;;;;;;13.30;5.07;;;;;;;;;;5034220;28;20463;-67
2022/01/05 02:15:25;;;;;;;12.40;4.50;;;;;;;;;;5033992;28;20482;-66
2022/01/05 02:17:57;;;;;;;10.43;4.50;;;;;;;;;;5033811;28;20414;-67
2022/01/05 02:20:24;;;;;;;11.27;4.20;;;;;;;;;;5034271;28;20217;-67
2022/01/05 02:22:51;;;;;;;12.67;4.57;;;;;;;;;;5034129;28;20406;-66
2022/01/05 02:25:17;;;;;;;13.33;4.93;;;;;;;;;;5033854;28;20433;-66
2022/01/05 02:27:43;;;;;;;13.20;4.40;;;;;;;;;;5033944;28;20406;-66
2022/01/05 02:30:11;;;;;;;8.17;4.07;;;;;;;;;;5033790;28;20210;-66
2022/01/05 02:32:37;;;;;;;15.83;4.57;;;;;;;;;;5033901;28;20564;-66
2022/01/05 02:35:04;;;;;;;15.00;4.47;;;;;;;;;;5033852;28;20198;-67
2022/01/05 02:37:30;;;;;;;8.73;4.47;;;;;;;;;;5033699;28;20414;-67
2022/01/05 02:39:56;;;;;;;7.00;4.00;;;;;;;;;;5032411;28;20923;-67
2022/01/05 02:42:26;;;;;;;11.97;4.33;;;;;;;;;;5033848;28;20180;-67
2022/01/05 02:44:52;;;;;;;12.43;4.43;;;;;;;;;;5032216;28;20203;-66
2022/01/05 02:47:18;;;;;;;7.70;3.70;;;;;;;;;;5033081;28;20636;-66
2022/01/05 02:49:44;;;;;;;9.97;4.10;;;;;;;;;;5033721;28;20496;-66
2022/01/05 02:52:10;;;;;;;13.93;3.70;;;;;;;;;;5033618;28;20418;-66
2022/01/05 02:54:36;;;;;;;15.00;4.23;;;;;;;;;;5033816;28;20433;-66
2022/01/05 02:57:02;;;;;;;13.67;4.70;;;;;;;;;;5033567;28;20860;-66
2022/01/05 02:59:29;;;;;;;14.43;4.70;;;;;;;;;;5032375;28;20563;-66
2022/01/05 03:01:55;;;;;;;9.43;4.60;;;;;;;;;;5033754;28;20414;-66
2022/01/05 03:04:21;;;;;;;15.07;4.53;;;;;;;;;;5033275;28;20456;-65
2022/01/05 03:06:47;;;;;;;13.93;3.90;;;;;;;;;;5034900;28;20173;-66
2022/01/05 03:09:13;;;;;;;18.23;4.87;;;;;;;;;;5037577;28;20228;-66
2022/01/05 03:11:38;;;;;;;10.33;4.17;;;;;;;;;;5036985;28;20186;-66
2022/01/05 03:14:04;;;;;;;9.83;4.03;;;;;;;;;;5035777;28;20202;-65
2022/01/05 03:16:30;;;;;;;15.57;4.37;;;;;;;;;;5037054;28;20199;-66
2022/01/05 03:18:56;;;;;;;15.37;4.63;;;;;;;;;;5037291;28;20480;-66
2022/01/05 03:21:22;;;;;;;11.90;4.40;;;;;;;;;;5037006;28;20261;-66
2022/01/05 03:23:48;;;;;;;13.77;3.60;;;;;;;;;;5035563;28;20207;-65
2022/01/05 03:26:14;;;;;;;16.50;3.50;;;;;;;;;;5035841;28;20181;-66
2022/01/05 03:28:40;;;;;;;10.67;4.30;;;;;;;;;;5037098;28;20217;-66
2022/01/05 03:31:06;;;;;;;10.87;4.03;;;;;;;;;;5037038;28;20190;-66
2022/01/05 03:33:32;;;;;;;14.13;4.20;;;;;;;;;;5035455;28;20187;-66
2022/01/05 03:35:58;;;;;;;14.97;3.43;;;;;;;;;;5036776;28;20186;-66
2022/01/05 03:38:27;;;;;;;10.40;3.50;;;;;;;;;;5035361;28;20418;-66
2022/01/05 03:40:53;;;;;;;16.90;3.93;;;;;;;;;;5035327;28;20206;-66
2022/01/05 03:43:19;;;;;;;12.23;3.60;;;;;;;;;;5036394;28;20493;-65
2022/01/05 03:45:45;;;;;;;10.03;3.20;;;;;;;;;;5036538;28;20225;-66
2022/01/05 03:48:12;;;;;;;8.13;3.40;;;;;;;;;;5035322;28;20180;-66
2022/01/05 03:50:39;;;;;;;10.63;3.10;;;;;;;;;;5034908;28;20410;-66
2022/01/05 03:53:06;;;;;;;7.70;3.63;;;;;;;;;;5036409;28;20410;-66
2022/01/05 03:55:32;;;;;;;9.57;3.40;;;;;;;;;;5036104;28;20430;-66
2022/01/05 03:57:58;;;;;;;13.87;3.43;;;;;;;;;;5034798;28;20426;-66
2022/01/05 04:00:26;;;;;;;14.90;4.00;;;;;;;;;;5035994;28;20556;-66
2022/01/05 04:02:52;;;;;;;12.10;3.23;;;;;;;;;;5036609;28;20186;-65
2022/01/05 04:05:18;;;;;;;9.80;2.87;;;;;;;;;;5035696;28;20458;-66
2022/01/05 04:07:44;;;;;;;9.40;2.67;;;;;;;;;;5034912;28;20437;-66
2022/01/05 04:10:10;;;;;;;10.50;3.37;;;;;;;;;;5035838;28;20261;-66
2022/01/05 04:12:36;;;;;;;13.83;3.43;;;;;;;;;;5034459;28;20183;-67
2022/01/05 04:15:03;;;;;;;9.63;3.30;;;;;;;;;;5034313;28;20290;-66
2022/01/05 04:17:29;;;;;;;9.17;3.20;;;;;;;;;;5035605;28;20473;-66
2022/01/05 04:19:55;;;;;;;8.50;2.70;;;;;;;;;;5035151;28;20461;-65
2022/01/05 04:22:21;;;;;;;13.83;2.93;;;;;;;;;;5034310;28;20665;-66
2022/01/05 04:24:47;;;;;;;8.87;3.13;;;;;;;;;;5035929;28;20516;-65
2022/01/05 04:27:13;;;;;;;13.13;3.00;;;;;;;;;;5034257;28;20446;-66
2022/01/05 04:29:39;;;;;;;12.30;2.90;;;;;;;;;;5035566;28;20175;-66
2022/01/05 04:34:36;;;;;;;11.10;3.60;;;;;;;;;;5038626;28;20273;-66
2022/01/05 04:37:02;;;;;;;12.10;2.70;;;;;;;;;;5039988;28;20394;-64
2022/01/05 04:39:28;;;;;;;9.87;3.20;;;;;;;;;;5039975;28;20411;-65
2022/01/05 04:41:54;;;;;;;11.63;2.90;;;;;;;;;;5039903;28;20418;-64
2022/01/05 04:44:20;;;;;;;12.73;3.37;;;;;;;;;;5039946;28;20281;-65
2022/01/05 04:46:46;;;;;;;5.23;2.70;;;;;;;;;;5039192;28;20240;-65
2022/01/05 04:49:12;;;;;;;13.13;4.23;;;;;;;;;;5039380;28;20255;-65
2022/01/05 04:51:38;;;;;;;10.40;3.73;;;;;;;;;;5040645;28;20172;-63
2022/01/05 04:54:05;;;;;;;10.00;3.00;;;;;;;;;;5040232;28;20569;-65
2022/01/05 04:56:30;;;;;;;9.03;2.40;;;;;;;;;;5040123;28;20202;-65
2022/01/05 04:58:56;;;;;;;11.47;2.73;;;;;;;;;;5040961;28;20418;-65
2022/01/05 05:01:23;;;;;;;12.10;3.73;;;;;;;;;;5038736;28;20205;-65
2022/01/05 05:03:49;;;;;;;12.63;3.23;;;;;;;;;;5038678;28;20457;-71
2022/01/05 05:06:15;;;;;;;8.80;2.73;;;;;;;;;;5038759;28;20445;-66
2022/01/05 05:08:41;;;;;;;12.63;3.30;;;;;;;;;;5038355;28;20425;-65
2022/01/05 05:11:07;;;;;;;7.13;3.13;;;;;;;;;;5040405;28;20176;-66
2022/01/05 05:13:33;;;;;;;9.53;2.90;;;;;;;;;;5040471;28;20717;-65
2022/01/05 05:15:59;;;;;;;9.53;3.00;;;;;;;;;;5039831;28;20627;-65
2022/01/05 05:18:25;;;;;;;10.83;3.40;;;;;;;;;;5040052;28;20418;-64
2022/01/05 05:20:51;;;;;;;6.93;2.67;;;;;;;;;;5039351;28;20214;-65
2022/01/05 05:23:17;;;;;;;12.97;4.07;;;;;;;;;;5039621;28;20438;-64
2022/01/05 05:25:43;;;;;;;13.50;4.07;;;;;;;;;;5038315;28;20262;-66
2022/01/05 05:28:09;;;;;;;12.37;5.93;;;;;;;;;;5039811;28;20417;-65
2022/01/05 05:30:36;;;;;;;13.63;6.03;;;;;;;;;;5038690;28;20464;-65
2022/01/05 05:33:02;;;;;;;20.40;6.33;;;;;;;;;;5039431;28;20218;-65
2022/01/05 05:35:28;;;;;;;15.00;4.47;;;;;;;;;;5038061;28;20425;-65
2022/01/05 05:37:55;;;;;;;15.27;6.60;;;;;;;;;;5038280;28;20414;-65
2022/01/05 05:40:21;;;;;;;26.50;13.50;;;;;;;;;;5038704;28;20462;-65
2022/01/05 05:42:48;;;;;;;20.33;7.27;;;;;;;;;;5039125;28;20452;-66
2022/01/05 05:45:13;;;;;;;11.63;4.80;;;;;;;;;;5039479;28;20418;-63
2022/01/05 05:47:39;;;;;;;13.20;4.20;;;;;;;;;;5039794;28;20420;-65
2022/01/05 05:50:06;;;;;;;8.60;4.53;;;;;;;;;;5039341;28;20183;-67
2022/01/05 05:52:32;;;;;;;16.73;4.43;;;;;;;;;;5038623;28;20199;-68
2022/01/05 05:54:57;;;;;;;7.90;3.43;;;;;;;;;;5038611;28;20556;-65
2022/01/05 05:57:23;;;;;;;10.17;3.73;;;;;;;;;;5038257;28;20462;-66
2022/01/05 05:59:49;;;;;;;13.23;6.80;;;;;;;;;;5039230;28;20202;-65
2022/01/05 06:02:15;;;;;;;12.90;5.63;;;;;;;;;;5039007;28;20179;-65
2022/01/05 06:04:41;;;;;;;11.60;4.90;;;;;;;;;;5037830;28;20175;-67
2022/01/05 06:07:07;;;;;;;13.03;4.23;;;;;;;;;;5038448;28;20183;-65
2022/01/05 06:09:33;;;;;;;13.33;3.80;;;;;;;;;;5039043;28;20927;-66
2022/01/05 06:11:59;;;;;;;13.30;4.00;;;;;;;;;;5038435;28;20212;-66
2022/01/05 06:14:25;;;;;;;8.20;3.87;;;;;;;;;;5038924;28;20191;-66
2022/01/05 06:16:51;;;;;;;11.53;4.07;;;;;;;;;;5040012;28;20179;-65
2022/01/05 06:19:17;;;;;;;15.97;3.80;;;;;;;;;;5037243;28;20651;-66
2022/01/05 06:21:44;;;;;;;10.47;3.87;;;;;;;;;;5037983;28;20290;-66
2022/01/05 06:24:10;;;;;;;7.93;3.80;;;;;;;;;;5038194;28;20203;-66
2022/01/05 06:26:36;;;;;;;14.77;4.00;;;;;;;;;;5040172;28;20438;-65
2022/01/05 06:29:02;;;;;;;10.33;3.53;;;;;;;;;;5039324;28;20420;-65
2022/01/05 06:31:28;;;;;;;10.53;3.40;;;;;;;;;;5040013;28;20175;-65
2022/01/05 06:33:54;;;;;;;15.80;4.47;;;;;;;;;;5038125;28;20226;-66
2022/01/05 06:36:20;;;;;;;12.70;4.13;;;;;;;;;;5038214;28;20255;-65
2022/01/05 06:38:46;;;;;;;11.73;3.63;;;;;;;;;;5038107;28;20913;-65
2022/01/05 06:41:12;;;;;;;15.63;3.97;;;;;;;;;;5040027;28;20663;-65
2022/01/05 06:43:38;;;;;;;16.80;4.07;;;;;;;;;;5041674;28;20333;-65
2022/01/05 06:46:04;;;;;;;14.07;4.83;;;;;;;;;;5043045;28;20263;-65
2022/01/05 06:48:30;;;;;;;9.63;3.67;;;;;;;;;;5042972;28;20674;-66
2022/01/05 06:50:56;;;;;;;13.67;4.03;;;;;;;;;;5041947;28;20233;-65
2022/01/05 06:53:22;;;;;;;9.27;3.37;;;;;;;;;;5042229;28;20438;-65
2022/01/05 06:55:48;;;;;;;13.80;3.63;;;;;;;;;;5043626;28;20183;-65
2022/01/05 06:58:14;;;;;;;14.33;3.43;;;;;;;;;;5043954;28;20968;-71
2022/01/05 07:00:40;;;;;;;10.23;3.20;;;;;;;;;;5041622;28;20647;-65
2022/01/05 07:03:06;;;;;;;11.43;4.00;;;;;;;;;;5042961;28;20195;-65
2022/01/05 07:05:32;;;;;;;11.83;4.10;;;;;;;;;;5042318;28;20186;-66
2022/01/05 07:07:58;;;;;;;13.70;3.50;;;;;;;;;;5043198;28;20178;-65
2022/01/05 07:10:24;;;;;;;14.73;3.00;;;;;;;;;;5042808;28;20468;-65
2022/01/05 07:12:50;;;;;;;21.97;4.33;;;;;;;;;;5042807;28;20437;-65
2022/01/05 07:15:16;;;;;;;10.37;3.70;;;;;;;;;;5041386;28;20183;-65
2022/01/05 07:17:42;;;;;;;11.63;3.23;;;;;;;;;;5040858;28;20194;-65
2022/01/05 07:20:08;;;;;;;13.43;3.80;;;;;;;;;;5042233;28;20311;-65
2022/01/05 07:22:35;;;;;;;12.37;3.30;;;;;;;;;;5042470;28;20245;-65
2022/01/05 07:25:01;;;;;;;20.97;4.03;;;;;;;;;;5040472;28;20472;-65
2022/01/05 07:27:27;;;;;;;7.77;2.77;;;;;;;;;;5041722;28;20414;-65
2022/01/05 07:29:53;;;;;;;16.07;3.67;;;;;;;;;;5041213;28;20180;-65
2022/01/05 07:32:19;;;;;;;15.93;3.73;;;;;;;;;;5041300;28;20240;-64
2022/01/05 07:34:45;;;;;;;13.77;3.13;;;;;;;;;;5041731;28;20477;-65
2022/01/05 07:37:11;;;;;;;13.50;3.90;;;;;;;;;;5041661;28;20560;-66
2022/01/05 07:39:37;;;;;;;12.23;4.10;;;;;;;;;;5041689;28;20414;-65
2022/01/05 07:42:03;;;;;;;14.30;3.93;;;;;;;;;;5040435;28;20542;-64
2022/01/05 07:44:29;;;;;;;15.20;4.43;;;;;;;;;;5041163;28;20410;-65
2022/01/05 07:46:55;;;;;;;14.27;4.43;;;;;;;;;;5041564;28;20420;-64
2022/01/05 07:49:21;;;;;;;7.80;2.97;;;;;;;;;;5040763;28;20175;-65
2022/01/05 07:51:47;;;;;;;10.50;3.80;;;;;;;;;;5040958;28;20425;-66
2022/01/05 07:54:13;;;;;;;10.13;3.00;;;;;;;;;;5039696;28;20195;-66
2022/01/05 07:56:39;;;;;;;8.37;3.57;;;;;;;;;;5041526;28;20450;-64
2022/01/05 07:59:05;;;;;;;7.47;3.13;;;;;;;;;;5039816;28;20186;-65
2022/01/05 08:01:31;;;;;;;12.40;4.03;;;;;;;;;;5040188;28;20754;-65
2022/01/05 08:03:57;;;;;;;18.00;3.50;;;;;;;;;;5041310;28;20444;-65
2022/01/05 08:06:23;;;;;;;8.77;3.40;;;;;;;;;;5039719;28;20860;-64
2022/01/05 08:08:50;;;;;;;14.43;3.23;;;;;;;;;;5039939;28;20179;-64
2022/01/05 08:11:16;;;;;;;8.63;3.17;;;;;;;;;;5039916;28;20414;-64
2022/01/05 08:13:42;;;;;;;11.33;3.63;;;;;;;;;;5038935;28;20429;-65
2022/01/05 08:16:09;;;;;;;7.50;2.70;;;;;;;;;;5040394;28;20793;-64
2022/01/05 08:18:35;;;;;;;7.50;2.87;;;;;;;;;;5040615;28;20422;-65
2022/01/05 08:21:01;;;;;;;10.17;3.47;;;;;;;;;;5040781;28;20461;-64
2022/01/05 08:23:27;;;;;;;12.13;3.53;;;;;;;;;;5038960;28;20532;-65
2022/01/05 08:25:53;;;;;;;12.37;3.63;;;;;;;;;;5037140;28;20238;-66
2022/01/05 08:28:20;;;;;;;14.43;3.80;;;;;;;;;;5035819;28;20179;-66
2022/01/05 08:30:46;;;;;;;7.33;3.40;;;;;;;;;;5036124;28;20422;-66
2022/01/05 08:33:16;;;;;;;13.97;3.80;;;;;;;;;;5036094;28;20446;-65
2022/01/05 08:35:42;;;;;;;11.47;3.70;;;;;;;;;;5038873;28;20417;-65
2022/01/05 08:38:08;;;;;;;12.53;3.77;;;;;;;;;;5036416;28;20414;-65
2022/01/05 08:40:35;;;;;;;16.23;4.17;;;;;;;;;;5036102;28;20202;-65
2022/01/05 08:43:02;;;;;;;10.00;3.73;;;;;;;;;;5034510;28;20449;-65
2022/01/05 08:45:28;;;;;;;10.93;4.20;;;;;;;;;;5036143;28;20405;-65
2022/01/05 08:47:55;;;;;;;16.60;4.47;;;;;;;;;;5036041;28;20497;-64
2022/01/05 08:50:22;;;;;;;10.17;3.53;;;;;;;;;;5035276;28;20669;-64
2022/01/05 08:52:48;;;;;;;14.80;4.60;;;;;;;;;;5035479;28;20476;-65
2022/01/05 08:55:16;;;;;;;6.03;3.57;;;;;;;;;;5034471;28;20501;-64
2022/01/05 08:57:42;;;;;;;8.37;3.60;;;;;;;;;;5034184;28;20430;-65
2022/01/05 09:00:09;;;;;;;18.27;3.07;;;;;;;;;;5035226;28;20536;-64
2022/01/05 09:02:35;;;;;;;11.93;4.27;;;;;;;;;;5035053;28;20430;-65
2022/01/05 09:05:01;;;;;;;11.40;3.70;;;;;;;;;;5035701;28;20412;-64
2022/01/05 09:07:27;;;;;;;7.97;3.80;;;;;;;;;;5035471;28;20438;-64
2022/01/05 09:09:53;;;;;;;12.97;4.80;;;;;;;;;;5035409;28;20418;-65
2022/01/05 09:12:19;;;;;;;11.93;4.97;;;;;;;;;;5035568;28;20922;-66
2022/01/05 09:14:45;;;;;;;15.47;5.10;;;;;;;;;;5035573;28;20666;-64
2022/01/05 09:17:11;;;;;;;15.30;4.20;;;;;;;;;;5035427;28;20183;-64
2022/01/05 09:19:37;;;;;;;9.87;4.43;;;;;;;;;;5035156;28;20422;-63
2022/01/05 09:22:04;;;;;;;18.07;5.87;;;;;;;;;;5034964;28;20175;-65
2022/01/05 09:24:29;;;;;;;9.60;4.20;;;;;;;;;;5034710;28;20406;-65
2022/01/05 09:27:02;;;;;;;11.70;3.77;;;;;;;;;;5035157;28;20412;-65
2022/01/05 09:29:29;;;;;;;17.83;5.17;;;;;;;;;;5033711;28;20593;-64
2022/01/05 09:31:55;;;;;;;4.83;3.37;;;;;;;;;;5034069;28;20513;-66
2022/01/05 09:34:21;;;;;;;16.67;4.80;;;;;;;;;;5034709;28;20507;-65
2022/01/05 09:36:51;;;;;;;14.60;4.23;;;;;;;;;;5033685;28;20659;-64
2022/01/05 09:42:05;;;;;;;13.87;4.63;;;;;;;;;;5035441;28;20417;-64
2022/01/05 09:44:38;;;;;;;12.50;4.53;;;;;;;;;;5033872;28;20467;-64
2022/01/05 09:47:23;;;;;;;11.07;5.17;;;;;;;;;;5035019;28;20390;-63
2022/01/05 09:49:53;;;;;;;15.83;5.60;;;;;;;;;;5035095;28;20402;-66
2022/01/05 09:52:19;;;;;;;11.70;4.33;;;;;;;;;;5035200;28;20441;-65
2022/01/05 09:54:45;;;;;;;18.10;6.23;;;;;;;;;;5034896;28;20410;-66
2022/01/05 09:57:13;;;;;;;24.77;9.33;;;;;;;;;;5035050;28;20176;-64
2022/01/05 09:59:39;;;;;;;30.90;10.70;;;;;;;;;;5034767;28;20600;-65
2022/01/05 10:02:06;;;;;;;9.67;5.20;;;;;;;;;;5033444;28;20198;-63
2022/01/05 10:04:33;;;;;;;12.40;5.33;;;;;;;;;;5034521;28;20171;-63
2022/01/05 10:06:59;;;;;;;11.20;5.03;;;;;;;;;;5033079;28;20179;-65
2022/01/05 10:09:25;;;;;;;10.07;3.60;;;;;;;;;;5034317;28;20197;-64
2022/01/05 10:11:51;;;;;;;5.87;3.17;;;;;;;;;;5034624;28;20926;-65
2022/01/05 10:14:17;;;;;;;19.70;3.63;;;;;;;;;;5034482;28;20210;-65
2022/01/05 10:16:59;;;;;;;8.60;3.90;;;;;;;;;;5034526;28;20635;-65
2022/01/05 10:19:25;;;;;;;16.60;7.13;;;;;;;;;;5034652;28;20166;-65
2022/01/05 10:21:52;;;;;;;16.37;4.93;;;;;;;;;;5034478;28;20460;-65
2022/01/05 10:24:18;;;;;;;11.13;4.20;;;;;;;;;;5032510;28;20202;-66
2022/01/05 10:26:43;;;;;;;14.30;4.23;;;;;;;;;;5033930;28;20824;-67
2022/01/05 10:29:17;;;;;;;10.43;4.93;;;;;;;;;;5033917;28;20182;-64
2022/01/05 10:31:44;;;;;;;11.90;4.87;;;;;;;;;;5033100;28;20187;-65
2022/01/05 10:34:14;;;;;;;11.43;4.23;;;;;;;;;;5033714;28;20494;-66
2022/01/05 10:36:44;;;;;;;9.03;2.83;;;;;;;;;;5032297;28;20186;-66
2022/01/05 10:39:11;;;;;;;12.40;3.87;;;;;;;;;;5033209;28;20225;-66
2022/01/05 10:41:38;;;;;;;14.83;4.40;;;;;;;;;;5033199;28;20481;-66
2022/01/05 10:44:09;;;;;;;13.27;4.60;;;;;;;;;;5033630;28;20313;-66
2022/01/05 10:46:36;;;;;;;11.13;4.13;;;;;;;;;;5032212;28;20187;-65
2022/01/05 10:49:04;;;;;;;7.53;3.47;;;;;;;;;;5033811;28;20499;-65
2022/01/05 10:51:30;;;;;;;13.90;4.97;;;;;;;;;;5033536;28;20176;-66
2022/01/05 10:54:15;;;;;;;13.40;4.50;;;;;;;;;;5033608;28;20517;-65
2022/01/05 10:56:41;;;;;;;17.40;4.50;;;;;;;;;;5032302;28;20414;-66
2022/01/05 10:59:07;;;;;;;16.43;4.50;;;;;;;;;;5033750;28;20179;-66
2022/01/05 11:01:33;;;;;;;14.87;4.60;;;;;;;;;;5033703;28;20813;-66
2022/01/05 11:04:14;;;;;;;13.00;4.30;;;;;;;;;;5032621;28;20533;-65
2022/01/05 11:06:53;;;;;;;9.80;3.90;;;;;;;;;;5033612;28;20394;-66
2022/01/05 11:09:19;;;;;;;12.47;4.27;;;;;;;;;;5033751;28;20164;-66
2022/01/05 11:11:47;;;;;;;16.00;4.50;;;;;;;;;;5032126;28;20183;-66
2022/01/05 11:14:13;;;;;;;18.57;4.43;;;;;;;;;;5033206;28;20195;-65
2022/01/05 11:16:41;;;;;;;9.93;4.20;;;;;;;;;;5033463;28;20194;-66
2022/01/05 11:19:17;;;;;;;12.00;3.87;;;;;;;;;;5033776;28;20258;-66
2022/01/05 11:21:55;;;;;;;12.77;4.00;;;;;;;;;;5032182;28;20305;-65
2022/01/05 11:24:21;;;;;;;14.13;4.60;;;;;;;;;;5032301;28;20621;-66
2022/01/05 11:26:47;;;;;;;9.20;4.23;;;;;;;;;;5033476;28;20240;-67
2022/01/05 11:29:13;;;;;;;9.83;4.20;;;;;;;;;;5035401;28;20262;-65
2022/01/05 11:31:39;;;;;;;14.10;4.47;;;;;;;;;;5037544;28;20453;-66
2022/01/05 11:34:06;;;;;;;12.63;3.80;;;;;;;;;;5036493;28;20221;-66
2022/01/05 11:36:32;;;;;;;10.97;4.40;;;;;;;;;;5037619;28;20239;-64
2022/01/05 11:38:58;;;;;;;19.80;4.73;;;;;;;;;;5036101;28;20601;-65
2022/01/05 11:41:25;;;;;;;14.37;4.33;;;;;;;;;;5035837;28;20682;-66
2022/01/05 11:43:51;;;;;;;12.43;4.10;;;;;;;;;;5036899;28;20199;-65
2022/01/05 11:46:18;;;;;;;12.00;4.33;;;;;;;;;;5035497;28;20538;-65
2022/01/05 11:49:01;;;;;;;16.33;5.63;;;;;;;;;;5035774;28;20179;-66
2022/01/05 11:51:31;;;;;;;11.13;4.13;;;;;;;;;;5036904;28;20179;-65
2022/01/05 11:54:12;;;;;;;9.43;3.63;;;;;;;;;;5037114;28;20195;-68
2022/01/05 11:56:42;;;;;;;11.33;4.00;;;;;;;;;;5037477;28;20391;-65
2022/01/05 11:59:19;;;;;;;15.60;7.00;;;;;;;;;;5036988;28;20253;-66
2022/01/05 12:01:57;;;;;;;17.33;7.50;;;;;;;;;;5037343;28;20191;-67
2022/01/05 12:04:23;;;;;;;15.43;6.07;;;;;;;;;;5035579;28;20606;-65
2022/01/05 12:06:49;;;;;;;13.83;3.73;;;;;;;;;;5037164;28;20179;-66
2022/01/05 12:09:20;;;;;;;8.23;3.33;;;;;;;;;;5036452;28;20179;-66
2022/01/05 12:11:46;;;;;;;12.67;4.33;;;;;;;;;;5036610;28;20193;-67
2022/01/05 12:14:21;;;;;;;10.13;3.10;;;;;;;;;;5036119;28;20203;-66
2022/01/05 12:16:56;;;;;;;16.43;4.73;;;;;;;;;;5036448;28;20186;-66
2022/01/05 12:19:22;;;;;;;15.03;4.40;;;;;;;;;;5036654;28;20270;-66
2022/01/05 12:21:53;;;;;;;10.43;3.83;;;;;;;;;;5036468;28;20226;-66
2022/01/05 12:24:19;;;;;;;16.73;4.13;;;;;;;;;;5036047;28;20328;-65
2022/01/05 12:26:48;;;;;;;10.80;4.20;;;;;;;;;;5035067;28;20183;-65
2022/01/05 12:29:29;;;;;;;15.93;5.30;;;;;;;;;;5036146;28;20663;-66
2022/01/05 12:31:56;;;;;;;11.10;3.80;;;;;;;;;;5036488;28;20225;-65
2022/01/05 12:34:41;;;;;;;14.23;4.30;;;;;;;;;;5035088;28;20341;-65
2022/01/05 12:37:27;;;;;;;9.27;2.83;;;;;;;;;;5035131;28;20192;-66
2022/01/05 12:39:56;;;;;;;12.17;3.70;;;;;;;;;;5035411;28;20229;-66
2022/01/05 12:42:22;;;;;;;15.13;3.57;;;;;;;;;;5034274;28;20179;-66
2022/01/05 12:44:48;;;;;;;13.17;4.20;;;;;;;;;;5035639;28;20175;-65
2022/01/05 12:47:16;;;;;;;16.90;5.80;;;;;;;;;;5054154;23;20285;-65
2022/01/05 12:49:42;;;;;;;21.23;10.20;;;;;;;;;;5035627;28;20168;-65
2022/01/05 12:52:14;;;;;;;23.37;12.77;;;;;;;;;;5035493;28;20175;-65
2022/01/05 12:54:52;;;;;;;22.20;10.87;;;;;;;;;;5050900;28;20178;-65
2022/01/05 12:57:21;;;;;;;19.30;11.23;;;;;;;;;;5035169;28;20207;-65
2022/01/05 12:59:50;;;;;;;16.10;8.93;;;;;;;;;;5035363;28;20186;-65
2022/01/05 13:02:26;;;;;;;11.23;5.83;;;;;;;;;;5035805;28;20642;-65
2022/01/05 13:04:52;;;;;;;14.60;4.77;;;;;;;;;;5034057;28;20179;-65
2022/01/05 13:07:20;;;;;;;12.53;4.07;;;;;;;;;;5033730;28;20202;-63
2022/01/05 13:09:47;;;;;;;10.07;4.37;;;;;;;;;;5035183;28;20261;-62
2022/01/05 13:12:16;;;;;;;17.00;3.63;;;;;;;;;;5034005;28;20186;-62
2022/01/05 13:14:46;;;;;;;10.90;3.90;;;;;;;;;;5035063;28;20175;-62
2022/01/05 13:17:19;;;;;;;17.93;5.37;;;;;;;;;;5035104;28;20667;-62
2022/01/05 13:19:55;;;;;;;12.37;3.30;;;;;;;;;;5034815;28;20493;-62
2022/01/05 13:22:25;;;;;;;8.77;2.80;;;;;;;;;;5035004;28;20169;-62
2022/01/05 13:24:57;;;;;;;15.70;7.03;;;;;;;;;;5035174;28;20222;-63
2022/01/05 13:27:34;;;;;;;14.93;6.63;;;;;;;;;;5033940;28;20206;-63
2022/01/05 13:30:00;;;;;;;10.37;4.10;;;;;;;;;;5035349;28;20155;-63
2022/01/05 13:32:27;;;;;;;15.20;4.07;;;;;;;;;;5034746;28;20206;-64
2022/01/05 13:35:04;;;;;;;14.63;4.17;;;;;;;;;;5034603;28;20544;-64
2022/01/05 13:37:51;;;;;;;11.03;4.27;;;;;;;;;;5034894;28;20195;-64
2022/01/05 13:40:21;;;;;;;12.33;6.47;;;;;;;;;;5036417;28;20198;-64
2022/01/05 13:42:47;;;;;;;15.87;4.63;;;;;;;;;;5041835;28;20186;-65
2022/01/05 13:45:21;;;;;;;9.40;3.37;;;;;;;;;;5043477;28;20175;-64
2022/01/05 13:47:48;;;;;;;15.83;6.27;;;;;;;;;;5041250;28;20199;-64
2022/01/05 13:50:25;;;;;;;12.10;4.40;;;;;;;;;;5034678;28;20175;-64
2022/01/05 13:52:55;;;;;;;11.40;3.93;;;;;;;;;;5034893;28;20171;-63
2022/01/05 13:55:23;;;;;;;12.63;3.73;;;;;;;;;;5034626;28;20229;-64
2022/01/05 13:57:49;;;;;;;16.83;7.30;;;;;;;;;;5034326;28;20190;-63
2022/01/05 14:00:15;;;;;;;11.40;5.07;;;;;;;;;;5033861;28;20280;-64
2022/01/05 14:02:42;;;;;;;21.47;4.57;;;;;;;;;;5037604;28;20183;-63
2022/01/05 14:05:09;;;;;;;9.57;3.97;;;;;;;;;;5041269;28;20175;-63
2022/01/05 14:07:37;;;;;;;13.57;3.67;;;;;;;;;;5040952;28;20206;-64
2022/01/05 14:10:14;;;;;;;13.70;4.00;;;;;;;;;;5040647;28;20197;-63
2022/01/05 14:12:40;;;;;;;9.63;4.07;;;;;;;;;;5035859;28;20178;-63
2022/01/05 14:15:07;;;;;;;11.53;3.57;;;;;;;;;;5032366;28;20734;-64
2022/01/05 14:17:33;;;;;;;14.17;4.13;;;;;;;;;;5033570;28;20248;-63
2022/01/05 14:20:11;;;;;;;9.37;4.53;;;;;;;;;;5034034;28;20232;-63
2022/01/05 14:22:37;;;;;;;10.93;4.13;;;;;;;;;;5033832;28;20635;-63
2022/01/05 14:25:04;;;;;;;10.63;3.43;;;;;;;;;;5033455;28;20175;-62
2022/01/05 14:27:35;;;;;;;9.30;3.93;;;;;;;;;;5033553;28;20194;-63
2022/01/05 14:30:02;;;;;;;11.03;3.83;;;;;;;;;;5033878;28;20269;-62
2022/01/05 14:32:35;;;;;;;11.37;3.77;;;;;;;;;;5032790;28;20245;-63
2022/01/05 14:35:03;;;;;;;16.90;4.20;;;;;;;;;;5033227;28;20182;-63
2022/01/05 14:37:29;;;;;;;14.43;5.33;;;;;;;;;;5034021;28;20281;-63
2022/01/05 14:39:57;;;;;;;11.03;4.63;;;;;;;;;;5033884;28;20213;-63